Melton Mowbray, United Kingdom
Current Conditions -  °F | °C
As of 2:20 PM on Thursday 30 Oct 2014 (Local Time) from EGNX Reporting Station
Scattered Clouds Scattered Clouds  
Wind Chill: 64°   Ceiling: Unl
Heat Index: 64°   Visibility: 6mi
Dew Point: 57°   Wind: 12mph
Humidity: 77%   Direction: 200°SSW
Pressure: 30"   Gusts: NA
Location:  52.76°N, 0.89°W
Report Text: EGNX 301420Z 20010KT 9999 SCT018 SCT032 18/14 Q1016
Loading
Personal Weather Stations






























Interactive Weather Map New forecast layout! Learn more

10-Day Weather Forecast

Advertisements
Track Severe Weather on mobile